sensor_id;sensor_type;location;lat;lon;timestamp;P1;durP1;ratioP1;P2;durP2;ratioP2
21095;SDS011;10706;49.036;12.112;2023-06-22T00:02:17;20.25;;;8.00;;
21095;SDS011;10706;49.036;12.112;2023-06-22T00:04:43;17.50;;;7.32;;
21095;SDS011;10706;49.036;12.112;2023-06-22T00:07:09;14.73;;;6.55;;
21095;SDS011;10706;49.036;12.112;2023-06-22T00:09:35;15.15;;;6.45;;
21095;SDS011;10706;49.036;12.112;2023-06-22T00:12:01;16.55;;;7.22;;
21095;SDS011;10706;49.036;12.112;2023-06-22T00:14:27;15.68;;;6.60;;
21095;SDS011;10706;49.036;12.112;2023-06-22T00:16:53;17.10;;;6.82;;
21095;SDS011;10706;49.036;12.112;2023-06-22T00:19:23;17.77;;;7.03;;
21095;SDS011;10706;49.036;12.112;2023-06-22T00:21:50;16.42;;;7.75;;
21095;SDS011;10706;49.036;12.112;2023-06-22T00:24:19;17.10;;;7.50;;
21095;SDS011;10706;49.036;12.112;2023-06-22T00:26:46;15.50;;;7.07;;
21095;SDS011;10706;49.036;12.112;2023-06-22T00:29:13;15.68;;;7.25;;
21095;SDS011;10706;49.036;12.112;2023-06-22T00:31:39;14.25;;;6.35;;
21095;SDS011;10706;49.036;12.112;2023-06-22T00:34:05;14.88;;;7.38;;
21095;SDS011;10706;49.036;12.112;2023-06-22T00:36:33;15.25;;;6.68;;
21095;SDS011;10706;49.036;12.112;2023-06-22T00:39:00;15.55;;;7.05;;
21095;SDS011;10706;49.036;12.112;2023-06-22T00:41:26;16.05;;;6.75;;
21095;SDS011;10706;49.036;12.112;2023-06-22T00:43:53;16.40;;;7.30;;
21095;SDS011;10706;49.036;12.112;2023-06-22T00:46:20;15.85;;;6.78;;
21095;SDS011;10706;49.036;12.112;2023-06-22T00:48:47;16.35;;;6.93;;
21095;SDS011;10706;49.036;12.112;2023-06-22T00:51:14;14.45;;;6.07;;
21095;SDS011;10706;49.036;12.112;2023-06-22T00:53:39;16.55;;;6.65;;
21095;SDS011;10706;49.036;12.112;2023-06-22T00:56:06;17.55;;;7.03;;
21095;SDS011;10706;49.036;12.112;2023-06-22T00:58:33;15.70;;;7.45;;
21095;SDS011;10706;49.036;12.112;2023-06-22T01:01:01;15.07;;;6.45;;
21095;SDS011;10706;49.036;12.112;2023-06-22T01:03:27;15.52;;;6.55;;
21095;SDS011;10706;49.036;12.112;2023-06-22T01:05:53;18.55;;;7.30;;
21095;SDS011;10706;49.036;12.112;2023-06-22T01:08:46;16.13;;;7.25;;
21095;SDS011;10706;49.036;12.112;2023-06-22T01:16:34;15.18;;;7.57;;
21095;SDS011;10706;49.036;12.112;2023-06-22T01:19:08;13.95;;;6.57;;
21095;SDS011;10706;49.036;12.112;2023-06-22T01:22:08;16.08;;;7.20;;
21095;SDS011;10706;49.036;12.112;2023-06-22T01:27:53;13.38;;;6.03;;
21095;SDS011;10706;49.036;12.112;2023-06-22T01:30:25;20.10;;;7.50;;
21095;SDS011;10706;49.036;12.112;2023-06-22T01:32:54;15.88;;;7.75;;
21095;SDS011;10706;49.036;12.112;2023-06-22T01:35:26;17.63;;;7.60;;
21095;SDS011;10706;49.036;12.112;2023-06-22T01:37:53;17.85;;;6.78;;
21095;SDS011;10706;49.036;12.112;2023-06-22T01:40:20;14.50;;;7.03;;
21095;SDS011;10706;49.036;12.112;2023-06-22T01:42:47;18.08;;;7.40;;
21095;SDS011;10706;49.036;12.112;2023-06-22T01:45:15;15.82;;;7.28;;
21095;SDS011;10706;49.036;12.112;2023-06-22T01:47:41;16.27;;;7.85;;
21095;SDS011;10706;49.036;12.112;2023-06-22T01:50:07;16.98;;;6.88;;
21095;SDS011;10706;49.036;12.112;2023-06-22T01:52:34;13.82;;;6.60;;
21095;SDS011;10706;49.036;12.112;2023-06-22T01:55:00;16.73;;;7.43;;
21095;SDS011;10706;49.036;12.112;2023-06-22T01:57:26;15.82;;;7.25;;
21095;SDS011;10706;49.036;12.112;2023-06-22T01:59:59;17.00;;;7.65;;
21095;SDS011;10706;49.036;12.112;2023-06-22T02:02:33;15.20;;;7.22;;
21095;SDS011;10706;49.036;12.112;2023-06-22T02:05:47;14.98;;;7.13;;
21095;SDS011;10706;49.036;12.112;2023-06-22T02:08:28;16.58;;;6.95;;
21095;SDS011;10706;49.036;12.112;2023-06-22T02:11:06;16.33;;;7.85;;
21095;SDS011;10706;49.036;12.112;2023-06-22T02:13:36;14.30;;;6.95;;
21095;SDS011;10706;49.036;12.112;2023-06-22T02:16:03;19.65;;;7.35;;
21095;SDS011;10706;49.036;12.112;2023-06-22T02:22:01;20.73;;;8.27;;
21095;SDS011;10706;49.036;12.112;2023-06-22T02:24:34;20.83;;;7.78;;
21095;SDS011;10706;49.036;12.112;2023-06-22T02:27:03;15.55;;;7.03;;
21095;SDS011;10706;49.036;12.112;2023-06-22T02:29:32;19.95;;;7.22;;
21095;SDS011;10706;49.036;12.112;2023-06-22T02:31:58;17.15;;;7.65;;
21095;SDS011;10706;49.036;12.112;2023-06-22T02:34:24;17.48;;;8.30;;
21095;SDS011;10706;49.036;12.112;2023-06-22T02:36:50;15.68;;;7.85;;
21095;SDS011;10706;49.036;12.112;2023-06-22T02:39:23;16.02;;;7.35;;
21095;SDS011;10706;49.036;12.112;2023-06-22T02:41:49;17.15;;;7.47;;
21095;SDS011;10706;49.036;12.112;2023-06-22T02:44:19;16.90;;;7.78;;
21095;SDS011;10706;49.036;12.112;2023-06-22T02:46:46;19.58;;;7.45;;
21095;SDS011;10706;49.036;12.112;2023-06-22T02:49:12;17.13;;;7.85;;
21095;SDS011;10706;49.036;12.112;2023-06-22T02:51:39;15.75;;;7.65;;
21095;SDS011;10706;49.036;12.112;2023-06-22T02:54:12;20.75;;;8.50;;
21095;SDS011;10706;49.036;12.112;2023-06-22T02:56:37;18.98;;;9.23;;
21095;SDS011;10706;49.036;12.112;2023-06-22T02:59:05;16.75;;;8.18;;
21095;SDS011;10706;49.036;12.112;2023-06-22T03:01:31;21.95;;;8.60;;
21095;SDS011;10706;49.036;12.112;2023-06-22T03:04:04;18.52;;;8.95;;
21095;SDS011;10706;49.036;12.112;2023-06-22T03:06:34;18.80;;;9.02;;
21095;SDS011;10706;49.036;12.112;2023-06-22T03:09:01;18.85;;;8.43;;
21095;SDS011;10706;49.036;12.112;2023-06-22T03:11:30;21.48;;;9.35;;
21095;SDS011;10706;49.036;12.112;2023-06-22T03:13:59;20.20;;;9.10;;
21095;SDS011;10706;49.036;12.112;2023-06-22T03:16:26;20.38;;;9.80;;
21095;SDS011;10706;49.036;12.112;2023-06-22T03:18:52;18.55;;;8.65;;
21095;SDS011;10706;49.036;12.112;2023-06-22T03:21:18;19.65;;;9.27;;
21095;SDS011;10706;49.036;12.112;2023-06-22T03:23:46;18.67;;;8.80;;
21095;SDS011;10706;49.036;12.112;2023-06-22T03:26:12;20.17;;;8.98;;
21095;SDS011;10706;49.036;12.112;2023-06-22T03:28:38;19.27;;;9.00;;
21095;SDS011;10706;49.036;12.112;2023-06-22T03:31:04;19.60;;;8.65;;
21095;SDS011;10706;49.036;12.112;2023-06-22T03:33:31;20.08;;;8.20;;
21095;SDS011;10706;49.036;12.112;2023-06-22T03:35:57;21.17;;;9.77;;
21095;SDS011;10706;49.036;12.112;2023-06-22T03:38:23;18.55;;;8.57;;
21095;SDS011;10706;49.036;12.112;2023-06-22T03:40:48;17.83;;;8.20;;
21095;SDS011;10706;49.036;12.112;2023-06-22T03:43:14;23.65;;;9.35;;
21095;SDS011;10706;49.036;12.112;2023-06-22T03:45:40;21.77;;;10.27;;
21095;SDS011;10706;49.036;12.112;2023-06-22T03:48:05;18.58;;;9.48;;
21095;SDS011;10706;49.036;12.112;2023-06-22T03:50:31;18.52;;;9.20;;
21095;SDS011;10706;49.036;12.112;2023-06-22T03:52:57;23.27;;;10.77;;
21095;SDS011;10706;49.036;12.112;2023-06-22T03:55:22;22.23;;;10.98;;
21095;SDS011;10706;49.036;12.112;2023-06-22T03:57:48;25.13;;;11.52;;
21095;SDS011;10706;49.036;12.112;2023-06-22T04:00:14;23.23;;;11.13;;
21095;SDS011;10706;49.036;12.112;2023-06-22T04:02:41;24.02;;;10.75;;
21095;SDS011;10706;49.036;12.112;2023-06-22T04:05:08;21.08;;;11.32;;
21095;SDS011;10706;49.036;12.112;2023-06-22T04:07:34;23.70;;;10.60;;
21095;SDS011;10706;49.036;12.112;2023-06-22T04:10:02;26.30;;;10.32;;
21095;SDS011;10706;49.036;12.112;2023-06-22T04:12:29;21.73;;;10.82;;
21095;SDS011;10706;49.036;12.112;2023-06-22T04:14:55;22.60;;;10.05;;
21095;SDS011;10706;49.036;12.112;2023-06-22T04:17:20;21.65;;;10.70;;
21095;SDS011;10706;49.036;12.112;2023-06-22T04:19:46;20.85;;;10.40;;
21095;SDS011;10706;49.036;12.112;2023-06-22T04:22:12;17.27;;;9.52;;
21095;SDS011;10706;49.036;12.112;2023-06-22T04:24:38;17.73;;;9.98;;
21095;SDS011;10706;49.036;12.112;2023-06-22T04:27:04;20.30;;;10.07;;
21095;SDS011;10706;49.036;12.112;2023-06-22T04:29:30;20.08;;;9.25;;
21095;SDS011;10706;49.036;12.112;2023-06-22T04:31:56;19.65;;;8.95;;
21095;SDS011;10706;49.036;12.112;2023-06-22T04:34:28;19.70;;;8.80;;
21095;SDS011;10706;49.036;12.112;2023-06-22T04:36:54;17.60;;;8.25;;
21095;SDS011;10706;49.036;12.112;2023-06-22T04:39:20;22.67;;;9.30;;
21095;SDS011;10706;49.036;12.112;2023-06-22T04:41:46;19.05;;;8.85;;
21095;SDS011;10706;49.036;12.112;2023-06-22T04:44:13;18.67;;;8.95;;
21095;SDS011;10706;49.036;12.112;2023-06-22T04:46:48;17.67;;;8.98;;
21095;SDS011;10706;49.036;12.112;2023-06-22T04:49:22;19.15;;;9.38;;
21095;SDS011;10706;49.036;12.112;2023-06-22T04:51:57;18.77;;;9.85;;
21095;SDS011;10706;49.036;12.112;2023-06-22T04:54:28;18.30;;;8.90;;
21095;SDS011;10706;49.036;12.112;2023-06-22T04:56:54;18.88;;;9.55;;
21095;SDS011;10706;49.036;12.112;2023-06-22T04:59:23;17.13;;;8.95;;
21095;SDS011;10706;49.036;12.112;2023-06-22T05:01:53;21.73;;;9.00;;
21095;SDS011;10706;49.036;12.112;2023-06-22T05:04:23;17.23;;;9.32;;
21095;SDS011;10706;49.036;12.112;2023-06-22T05:06:53;19.50;;;9.13;;
21095;SDS011;10706;49.036;12.112;2023-06-22T05:09:20;21.17;;;9.40;;
21095;SDS011;10706;49.036;12.112;2023-06-22T05:11:46;18.25;;;9.45;;
21095;SDS011;10706;49.036;12.112;2023-06-22T05:14:12;20.38;;;9.45;;
21095;SDS011;10706;49.036;12.112;2023-06-22T05:16:39;22.77;;;10.60;;
21095;SDS011;10706;49.036;12.112;2023-06-22T05:19:08;19.83;;;10.13;;
21095;SDS011;10706;49.036;12.112;2023-06-22T05:21:34;23.63;;;10.98;;
21095;SDS011;10706;49.036;12.112;2023-06-22T05:24:00;20.60;;;9.85;;
21095;SDS011;10706;49.036;12.112;2023-06-22T05:26:28;20.02;;;10.23;;
21095;SDS011;10706;49.036;12.112;2023-06-22T05:28:55;19.33;;;10.40;;
21095;SDS011;10706;49.036;12.112;2023-06-22T05:31:22;19.95;;;10.30;;
21095;SDS011;10706;49.036;12.112;2023-06-22T05:33:49;18.85;;;9.60;;
21095;SDS011;10706;49.036;12.112;2023-06-22T05:36:17;18.65;;;9.32;;
21095;SDS011;10706;49.036;12.112;2023-06-22T05:38:49;20.92;;;9.52;;
21095;SDS011;10706;49.036;12.112;2023-06-22T05:41:18;22.50;;;9.57;;
21095;SDS011;10706;49.036;12.112;2023-06-22T05:43:44;21.17;;;9.68;;
21095;SDS011;10706;49.036;12.112;2023-06-22T05:46:10;23.02;;;9.32;;
21095;SDS011;10706;49.036;12.112;2023-06-22T05:48:36;17.35;;;8.73;;
21095;SDS011;10706;49.036;12.112;2023-06-22T05:51:02;20.98;;;10.05;;
21095;SDS011;10706;49.036;12.112;2023-06-22T05:53:28;22.45;;;8.88;;
21095;SDS011;10706;49.036;12.112;2023-06-22T05:55:53;18.42;;;9.27;;
21095;SDS011;10706;49.036;12.112;2023-06-22T05:58:19;16.15;;;8.27;;
21095;SDS011;10706;49.036;12.112;2023-06-22T06:00:45;19.40;;;8.57;;
21095;SDS011;10706;49.036;12.112;2023-06-22T06:03:11;15.98;;;7.90;;
21095;SDS011;10706;49.036;12.112;2023-06-22T06:05:37;17.08;;;8.02;;
21095;SDS011;10706;49.036;12.112;2023-06-22T06:08:04;15.68;;;7.55;;
21095;SDS011;10706;49.036;12.112;2023-06-22T06:10:31;17.13;;;7.40;;
21095;SDS011;10706;49.036;12.112;2023-06-22T06:12:58;16.98;;;7.80;;
21095;SDS011;10706;49.036;12.112;2023-06-22T06:15:27;15.65;;;7.72;;
21095;SDS011;10706;49.036;12.112;2023-06-22T06:17:53;15.30;;;7.50;;
21095;SDS011;10706;49.036;12.112;2023-06-22T06:20:20;14.00;;;6.75;;
21095;SDS011;10706;49.036;12.112;2023-06-22T06:22:48;16.50;;;7.40;;
21095;SDS011;10706;49.036;12.112;2023-06-22T06:25:17;16.23;;;6.75;;
21095;SDS011;10706;49.036;12.112;2023-06-22T06:27:48;13.88;;;6.28;;
21095;SDS011;10706;49.036;12.112;2023-06-22T06:30:16;15.43;;;6.57;;
21095;SDS011;10706;49.036;12.112;2023-06-22T06:32:43;15.65;;;6.60;;
21095;SDS011;10706;49.036;12.112;2023-06-22T06:35:13;14.25;;;6.15;;
21095;SDS011;10706;49.036;12.112;2023-06-22T06:37:43;16.23;;;6.88;;
21095;SDS011;10706;49.036;12.112;2023-06-22T06:40:13;13.35;;;5.95;;
21095;SDS011;10706;49.036;12.112;2023-06-22T06:42:40;14.18;;;6.85;;
21095;SDS011;10706;49.036;12.112;2023-06-22T06:45:31;14.60;;;6.47;;
21095;SDS011;10706;49.036;12.112;2023-06-22T06:47:58;11.10;;;5.57;;
21095;SDS011;10706;49.036;12.112;2023-06-22T06:50:23;14.35;;;5.80;;
21095;SDS011;10706;49.036;12.112;2023-06-22T06:52:49;13.85;;;6.28;;
21095;SDS011;10706;49.036;12.112;2023-06-22T06:55:15;13.70;;;6.07;;
21095;SDS011;10706;49.036;12.112;2023-06-22T06:57:41;13.27;;;5.78;;
21095;SDS011;10706;49.036;12.112;2023-06-22T07:00:11;13.82;;;5.75;;
21095;SDS011;10706;49.036;12.112;2023-06-22T07:02:47;15.20;;;6.20;;
21095;SDS011;10706;49.036;12.112;2023-06-22T07:05:13;14.27;;;6.78;;
21095;SDS011;10706;49.036;12.112;2023-06-22T07:07:40;13.40;;;5.85;;
21095;SDS011;10706;49.036;12.112;2023-06-22T07:10:06;13.75;;;6.13;;
21095;SDS011;10706;49.036;12.112;2023-06-22T07:12:33;13.45;;;5.80;;
21095;SDS011;10706;49.036;12.112;2023-06-22T07:15:05;14.73;;;5.55;;
21095;SDS011;10706;49.036;12.112;2023-06-22T07:17:34;13.57;;;5.93;;
21095;SDS011;10706;49.036;12.112;2023-06-22T07:20:00;12.60;;;5.80;;
21095;SDS011;10706;49.036;12.112;2023-06-22T07:22:29;13.40;;;5.63;;
21095;SDS011;10706;49.036;12.112;2023-06-22T07:24:55;13.13;;;5.80;;
21095;SDS011;10706;49.036;12.112;2023-06-22T07:27:21;14.65;;;5.88;;
21095;SDS011;10706;49.036;12.112;2023-06-22T07:29:47;14.00;;;6.07;;
21095;SDS011;10706;49.036;12.112;2023-06-22T07:32:12;15.85;;;5.82;;
21095;SDS011;10706;49.036;12.112;2023-06-22T07:34:38;12.40;;;5.13;;
21095;SDS011;10706;49.036;12.112;2023-06-22T07:37:04;12.75;;;5.68;;
21095;SDS011;10706;49.036;12.112;2023-06-22T07:39:30;17.67;;;6.35;;
21095;SDS011;10706;49.036;12.112;2023-06-22T07:41:56;13.63;;;6.00;;
21095;SDS011;10706;49.036;12.112;2023-06-22T07:44:21;13.25;;;5.43;;
21095;SDS011;10706;49.036;12.112;2023-06-22T07:46:48;15.68;;;6.05;;
21095;SDS011;10706;49.036;12.112;2023-06-22T07:49:14;15.48;;;5.65;;
21095;SDS011;10706;49.036;12.112;2023-06-22T07:51:41;16.58;;;5.47;;
21095;SDS011;10706;49.036;12.112;2023-06-22T07:54:07;16.00;;;5.03;;
21095;SDS011;10706;49.036;12.112;2023-06-22T07:56:34;16.30;;;5.25;;
21095;SDS011;10706;49.036;12.112;2023-06-22T07:59:01;12.50;;;4.50;;
21095;SDS011;10706;49.036;12.112;2023-06-22T08:01:28;14.73;;;4.07;;
21095;SDS011;10706;49.036;12.112;2023-06-22T08:03:54;13.35;;;4.15;;
21095;SDS011;10706;49.036;12.112;2023-06-22T08:06:20;11.93;;;3.42;;
21095;SDS011;10706;49.036;12.112;2023-06-22T08:08:46;13.57;;;4.10;;
21095;SDS011;10706;49.036;12.112;2023-06-22T08:11:13;15.50;;;3.85;;
21095;SDS011;10706;49.036;12.112;2023-06-22T08:13:39;8.88;;;3.10;;
21095;SDS011;10706;49.036;12.112;2023-06-22T08:16:05;13.23;;;4.35;;
21095;SDS011;10706;49.036;12.112;2023-06-22T08:18:32;10.73;;;4.13;;
21095;SDS011;10706;49.036;12.112;2023-06-22T08:20:58;11.90;;;4.07;;
21095;SDS011;10706;49.036;12.112;2023-06-22T08:23:24;11.80;;;4.00;;
21095;SDS011;10706;49.036;12.112;2023-06-22T08:25:49;13.82;;;4.10;;
21095;SDS011;10706;49.036;12.112;2023-06-22T08:28:15;15.13;;;4.50;;
21095;SDS011;10706;49.036;12.112;2023-06-22T08:30:41;11.77;;;3.95;;
21095;SDS011;10706;49.036;12.112;2023-06-22T08:33:07;13.23;;;3.78;;
21095;SDS011;10706;49.036;12.112;2023-06-22T08:35:32;13.88;;;4.05;;
21095;SDS011;10706;49.036;12.112;2023-06-22T08:37:58;10.55;;;3.92;;
21095;SDS011;10706;49.036;12.112;2023-06-22T08:40:25;13.32;;;3.58;;
21095;SDS011;10706;49.036;12.112;2023-06-22T08:42:50;15.20;;;3.70;;
21095;SDS011;10706;49.036;12.112;2023-06-22T08:45:16;16.00;;;3.90;;
21095;SDS011;10706;49.036;12.112;2023-06-22T08:47:42;12.70;;;3.80;;
21095;SDS011;10706;49.036;12.112;2023-06-22T08:50:11;13.82;;;3.88;;
21095;SDS011;10706;49.036;12.112;2023-06-22T08:52:38;10.90;;;3.35;;
21095;SDS011;10706;49.036;12.112;2023-06-22T08:55:08;15.63;;;4.10;;
21095;SDS011;10706;49.036;12.112;2023-06-22T08:57:35;11.85;;;3.88;;
21095;SDS011;10706;49.036;12.112;2023-06-22T09:00:05;12.15;;;3.92;;
21095;SDS011;10706;49.036;12.112;2023-06-22T09:02:41;12.13;;;3.75;;
21095;SDS011;10706;49.036;12.112;2023-06-22T09:05:10;11.80;;;3.75;;
21095;SDS011;10706;49.036;12.112;2023-06-22T09:07:36;13.57;;;4.25;;
21095;SDS011;10706;49.036;12.112;2023-06-22T09:10:02;11.75;;;3.33;;
21095;SDS011;10706;49.036;12.112;2023-06-22T09:12:31;10.55;;;3.97;;
21095;SDS011;10706;49.036;12.112;2023-06-22T09:14:58;15.65;;;4.50;;
21095;SDS011;10706;49.036;12.112;2023-06-22T09:17:25;11.20;;;4.10;;
21095;SDS011;10706;49.036;12.112;2023-06-22T09:19:51;14.63;;;3.80;;
21095;SDS011;10706;49.036;12.112;2023-06-22T09:22:17;13.23;;;4.40;;
21095;SDS011;10706;49.036;12.112;2023-06-22T09:24:43;14.32;;;4.22;;
21095;SDS011;10706;49.036;12.112;2023-06-22T09:27:09;13.57;;;4.10;;
21095;SDS011;10706;49.036;12.112;2023-06-22T09:29:34;13.02;;;4.00;;
21095;SDS011;10706;49.036;12.112;2023-06-22T09:32:00;15.80;;;3.95;;
21095;SDS011;10706;49.036;12.112;2023-06-22T09:34:26;14.23;;;4.25;;
21095;SDS011;10706;49.036;12.112;2023-06-22T09:36:52;10.90;;;4.03;;
21095;SDS011;10706;49.036;12.112;2023-06-22T09:39:18;20.25;;;4.40;;
21095;SDS011;10706;49.036;12.112;2023-06-22T09:41:44;13.18;;;4.30;;
21095;SDS011;10706;49.036;12.112;2023-06-22T09:44:10;10.80;;;4.05;;
21095;SDS011;10706;49.036;12.112;2023-06-22T09:46:35;13.45;;;3.80;;
21095;SDS011;10706;49.036;12.112;2023-06-22T09:49:01;18.15;;;4.07;;
21095;SDS011;10706;49.036;12.112;2023-06-22T09:51:27;13.45;;;3.95;;
21095;SDS011;10706;49.036;12.112;2023-06-22T09:53:56;11.93;;;3.60;;
21095;SDS011;10706;49.036;12.112;2023-06-22T09:56:23;10.57;;;3.97;;
21095;SDS011;10706;49.036;12.112;2023-06-22T09:58:48;10.15;;;3.92;;
21095;SDS011;10706;49.036;12.112;2023-06-22T10:01:17;10.60;;;3.45;;
21095;SDS011;10706;49.036;12.112;2023-06-22T10:03:43;14.80;;;4.15;;
21095;SDS011;10706;49.036;12.112;2023-06-22T10:06:09;14.10;;;3.92;;
21095;SDS011;10706;49.036;12.112;2023-06-22T10:08:35;14.50;;;4.05;;
21095;SDS011;10706;49.036;12.112;2023-06-22T10:11:01;13.85;;;4.70;;
21095;SDS011;10706;49.036;12.112;2023-06-22T10:13:28;11.25;;;3.70;;
21095;SDS011;10706;49.036;12.112;2023-06-22T10:15:54;14.10;;;4.50;;
21095;SDS011;10706;49.036;12.112;2023-06-22T10:18:20;17.50;;;4.32;;
21095;SDS011;10706;49.036;12.112;2023-06-22T10:20:47;15.05;;;4.78;;
21095;SDS011;10706;49.036;12.112;2023-06-22T10:23:17;13.88;;;3.38;;
21095;SDS011;10706;49.036;12.112;2023-06-22T10:25:47;13.18;;;3.90;;
21095;SDS011;10706;49.036;12.112;2023-06-22T10:28:13;10.50;;;3.90;;
21095;SDS011;10706;49.036;12.112;2023-06-22T10:30:42;14.57;;;3.70;;
21095;SDS011;10706;49.036;12.112;2023-06-22T10:33:09;13.00;;;4.18;;
21095;SDS011;10706;49.036;12.112;2023-06-22T10:35:36;13.60;;;4.32;;
21095;SDS011;10706;49.036;12.112;2023-06-22T10:38:05;10.77;;;3.78;;
21095;SDS011;10706;49.036;12.112;2023-06-22T10:40:31;10.40;;;3.72;;
21095;SDS011;10706;49.036;12.112;2023-06-22T10:42:57;12.80;;;4.03;;
21095;SDS011;10706;49.036;12.112;2023-06-22T10:45:23;15.85;;;4.07;;
21095;SDS011;10706;49.036;12.112;2023-06-22T10:47:48;11.65;;;4.55;;
21095;SDS011;10706;49.036;12.112;2023-06-22T10:50:14;12.13;;;4.28;;
21095;SDS011;10706;49.036;12.112;2023-06-22T10:52:40;12.55;;;3.63;;
21095;SDS011;10706;49.036;12.112;2023-06-22T10:55:09;10.90;;;4.20;;
21095;SDS011;10706;49.036;12.112;2023-06-22T10:57:35;14.73;;;3.85;;
21095;SDS011;10706;49.036;12.112;2023-06-22T11:00:02;10.10;;;3.90;;
21095;SDS011;10706;49.036;12.112;2023-06-22T11:02:30;15.13;;;4.05;;
21095;SDS011;10706;49.036;12.112;2023-06-22T11:05:02;19.02;;;4.55;;
21095;SDS011;10706;49.036;12.112;2023-06-22T11:07:31;13.68;;;3.92;;
21095;SDS011;10706;49.036;12.112;2023-06-22T11:09:57;13.82;;;4.10;;
21095;SDS011;10706;49.036;12.112;2023-06-22T11:12:23;12.13;;;3.88;;
21095;SDS011;10706;49.036;12.112;2023-06-22T11:14:49;15.82;;;3.72;;
21095;SDS011;10706;49.036;12.112;2023-06-22T11:17:18;14.15;;;4.10;;
21095;SDS011;10706;49.036;12.112;2023-06-22T11:19:44;14.13;;;4.40;;
21095;SDS011;10706;49.036;12.112;2023-06-22T11:22:10;14.98;;;4.30;;
21095;SDS011;10706;49.036;12.112;2023-06-22T11:24:36;17.25;;;4.70;;
21095;SDS011;10706;49.036;12.112;2023-06-22T11:27:01;16.10;;;4.68;;
21095;SDS011;10706;49.036;12.112;2023-06-22T11:29:27;13.38;;;4.32;;
21095;SDS011;10706;49.036;12.112;2023-06-22T11:31:53;14.77;;;4.80;;
21095;SDS011;10706;49.036;12.112;2023-06-22T11:34:19;17.75;;;4.15;;
21095;SDS011;10706;49.036;12.112;2023-06-22T11:36:44;15.70;;;4.00;;
21095;SDS011;10706;49.036;12.112;2023-06-22T11:39:10;13.68;;;4.53;;
21095;SDS011;10706;49.036;12.112;2023-06-22T11:41:39;15.55;;;4.57;;
21095;SDS011;10706;49.036;12.112;2023-06-22T11:44:04;15.15;;;4.80;;
21095;SDS011;10706;49.036;12.112;2023-06-22T11:46:30;14.15;;;4.78;;
21095;SDS011;10706;49.036;12.112;2023-06-22T11:48:57;12.63;;;4.38;;
21095;SDS011;10706;49.036;12.112;2023-06-22T11:51:23;12.18;;;4.10;;
21095;SDS011;10706;49.036;12.112;2023-06-22T11:53:49;19.15;;;4.68;;
21095;SDS011;10706;49.036;12.112;2023-06-22T11:56:15;17.05;;;4.38;;
21095;SDS011;10706;49.036;12.112;2023-06-22T11:58:40;11.00;;;3.72;;
21095;SDS011;10706;49.036;12.112;2023-06-22T12:01:06;13.68;;;3.88;;
21095;SDS011;10706;49.036;12.112;2023-06-22T12:03:32;13.52;;;4.30;;
21095;SDS011;10706;49.036;12.112;2023-06-22T12:05:57;14.57;;;4.50;;
21095;SDS011;10706;49.036;12.112;2023-06-22T12:08:24;15.30;;;4.60;;
21095;SDS011;10706;49.036;12.112;2023-06-22T12:10:50;13.10;;;4.15;;
21095;SDS011;10706;49.036;12.112;2023-06-22T12:13:16;13.52;;;4.65;;
21095;SDS011;10706;49.036;12.112;2023-06-22T12:15:42;12.38;;;4.00;;
21095;SDS011;10706;49.036;12.112;2023-06-22T12:18:08;15.70;;;5.13;;
21095;SDS011;10706;49.036;12.112;2023-06-22T12:20:34;11.93;;;4.60;;
21095;SDS011;10706;49.036;12.112;2023-06-22T12:23:00;15.02;;;4.57;;
21095;SDS011;10706;49.036;12.112;2023-06-22T12:25:26;15.45;;;4.20;;
21095;SDS011;10706;49.036;12.112;2023-06-22T12:27:52;18.15;;;4.32;;
21095;SDS011;10706;49.036;12.112;2023-06-22T12:30:18;18.80;;;4.55;;
21095;SDS011;10706;49.036;12.112;2023-06-22T12:32:44;14.25;;;4.88;;
21095;SDS011;10706;49.036;12.112;2023-06-22T12:35:10;14.38;;;4.20;;
21095;SDS011;10706;49.036;12.112;2023-06-22T12:37:39;17.58;;;4.85;;
21095;SDS011;10706;49.036;12.112;2023-06-22T12:40:07;13.73;;;4.88;;
21095;SDS011;10706;49.036;12.112;2023-06-22T12:42:34;16.05;;;5.22;;
21095;SDS011;10706;49.036;12.112;2023-06-22T12:44:59;14.93;;;4.68;;
21095;SDS011;10706;49.036;12.112;2023-06-22T12:47:25;8.75;;;4.20;;
21095;SDS011;10706;49.036;12.112;2023-06-22T12:49:51;19.92;;;4.68;;
21095;SDS011;10706;49.036;12.112;2023-06-22T12:52:17;16.40;;;4.13;;
21095;SDS011;10706;49.036;12.112;2023-06-22T12:54:42;18.58;;;4.88;;
21095;SDS011;10706;49.036;12.112;2023-06-22T12:57:08;14.57;;;5.28;;
21095;SDS011;10706;49.036;12.112;2023-06-22T12:59:34;19.67;;;4.65;;
21095;SDS011;10706;49.036;12.112;2023-06-22T13:01:59;11.73;;;4.30;;
21095;SDS011;10706;49.036;12.112;2023-06-22T13:04:25;11.10;;;3.78;;
21095;SDS011;10706;49.036;12.112;2023-06-22T13:06:51;13.32;;;4.57;;
21095;SDS011;10706;49.036;12.112;2023-06-22T13:09:17;16.63;;;4.55;;
21095;SDS011;10706;49.036;12.112;2023-06-22T13:11:44;14.13;;;4.57;;
21095;SDS011;10706;49.036;12.112;2023-06-22T13:14:10;14.90;;;4.75;;
21095;SDS011;10706;49.036;12.112;2023-06-22T13:16:36;13.40;;;4.43;;
21095;SDS011;10706;49.036;12.112;2023-06-22T13:19:02;15.77;;;4.70;;
21095;SDS011;10706;49.036;12.112;2023-06-22T13:21:28;12.95;;;4.82;;
21095;SDS011;10706;49.036;12.112;2023-06-22T13:23:53;14.77;;;4.13;;
21095;SDS011;10706;49.036;12.112;2023-06-22T13:26:20;13.75;;;4.45;;
21095;SDS011;10706;49.036;12.112;2023-06-22T13:28:47;16.05;;;4.43;;
21095;SDS011;10706;49.036;12.112;2023-06-22T13:31:12;16.02;;;4.40;;
21095;SDS011;10706;49.036;12.112;2023-06-22T13:33:38;12.77;;;4.65;;
21095;SDS011;10706;49.036;12.112;2023-06-22T13:36:05;12.73;;;4.28;;
21095;SDS011;10706;49.036;12.112;2023-06-22T13:38:32;19.75;;;5.38;;
21095;SDS011;10706;49.036;12.112;2023-06-22T13:41:03;18.17;;;4.75;;
21095;SDS011;10706;49.036;12.112;2023-06-22T13:43:30;18.60;;;5.15;;
21095;SDS011;10706;49.036;12.112;2023-06-22T13:45:56;16.50;;;4.38;;
21095;SDS011;10706;49.036;12.112;2023-06-22T13:48:22;14.05;;;4.22;;
21095;SDS011;10706;49.036;12.112;2023-06-22T13:50:48;15.05;;;4.80;;
21095;SDS011;10706;49.036;12.112;2023-06-22T13:53:14;13.30;;;4.30;;
21095;SDS011;10706;49.036;12.112;2023-06-22T13:55:40;17.98;;;4.45;;
21095;SDS011;10706;49.036;12.112;2023-06-22T13:58:06;12.60;;;4.78;;
21095;SDS011;10706;49.036;12.112;2023-06-22T14:00:32;11.80;;;4.00;;
21095;SDS011;10706;49.036;12.112;2023-06-22T14:02:58;12.32;;;4.43;;
21095;SDS011;10706;49.036;12.112;2023-06-22T14:05:23;14.20;;;4.00;;
21095;SDS011;10706;49.036;12.112;2023-06-22T14:07:49;11.93;;;4.30;;
21095;SDS011;10706;49.036;12.112;2023-06-22T14:10:15;15.20;;;4.20;;
21095;SDS011;10706;49.036;12.112;2023-06-22T14:12:41;16.70;;;4.30;;
21095;SDS011;10706;49.036;12.112;2023-06-22T14:15:07;16.33;;;4.20;;
21095;SDS011;10706;49.036;12.112;2023-06-22T14:17:33;16.63;;;4.72;;
21095;SDS011;10706;49.036;12.112;2023-06-22T14:19:59;13.80;;;4.22;;
21095;SDS011;10706;49.036;12.112;2023-06-22T14:22:24;16.00;;;4.47;;
21095;SDS011;10706;49.036;12.112;2023-06-22T14:24:52;14.32;;;3.95;;
21095;SDS011;10706;49.036;12.112;2023-06-22T14:27:17;20.55;;;4.18;;
21095;SDS011;10706;49.036;12.112;2023-06-22T14:29:43;16.08;;;4.82;;
21095;SDS011;10706;49.036;12.112;2023-06-22T14:32:09;17.60;;;4.97;;
21095;SDS011;10706;49.036;12.112;2023-06-22T14:34:35;16.10;;;4.30;;